createdAt,value
2018-05-29T00:01:21.439Z,47.00
2018-05-29T00:03:51.015Z,47.30
2018-05-29T00:06:20.479Z,47.60
2018-05-29T00:08:50.889Z,47.80
2018-05-29T00:11:20.598Z,47.70
2018-05-29T00:13:50.843Z,48.20
2018-05-29T00:16:21.515Z,47.60
2018-05-29T00:18:50.965Z,47.50
2018-05-29T00:21:21.327Z,46.30
2018-05-29T00:23:52.305Z,46.30
2018-05-29T00:26:21.792Z,46.80
2018-05-29T00:28:51.544Z,46.30
2018-05-29T00:31:21.248Z,46.60
2018-05-29T00:33:50.755Z,47.30
2018-05-29T00:36:20.081Z,46.70
2018-05-29T00:38:49.564Z,48.60
2018-05-29T00:41:19.179Z,48.10
2018-05-29T00:43:48.565Z,47.40
2018-05-29T00:46:17.858Z,49.70
2018-05-29T00:48:47.490Z,48.00
2018-05-29T00:51:17.599Z,49.80
2018-05-29T00:53:47.047Z,49.40
2018-05-29T00:56:16.448Z,48.00
2018-05-29T00:58:45.996Z,48.40
2018-05-29T01:01:15.414Z,47.90
2018-05-29T01:03:45.326Z,48.60
2018-05-29T01:06:14.885Z,49.30
2018-05-29T01:08:44.710Z,49.10
2018-05-29T01:11:14.623Z,48.10
2018-05-29T01:13:44.188Z,48.10
2018-05-29T01:16:14.542Z,47.90
2018-05-29T01:18:43.749Z,47.90
2018-05-29T01:21:13.492Z,49.00
2018-05-29T01:23:43.228Z,48.50
2018-05-29T01:26:14.184Z,48.50
2018-05-29T01:28:44.113Z,48.40
2018-05-29T01:31:14.086Z,48.70
2018-05-29T01:33:43.943Z,49.40
2018-05-29T01:36:13.982Z,49.50
2018-05-29T01:38:44.905Z,48.80
2018-05-29T01:41:14.232Z,49.00
2018-05-29T01:43:43.602Z,49.50
2018-05-29T01:46:13.815Z,50.40
2018-05-29T01:48:43.337Z,50.90
2018-05-29T01:51:12.950Z,50.60
2018-05-29T01:53:53.202Z,49.70
2018-05-29T01:56:23.041Z,49.90
2018-05-29T01:58:52.550Z,50.20
2018-05-29T02:01:22.902Z,50.10
2018-05-29T02:03:52.399Z,51.00
2018-05-29T02:06:23.043Z,50.70
2018-05-29T02:08:52.617Z,50.70
2018-05-29T02:11:22.137Z,50.60
2018-05-29T02:13:51.804Z,50.00
2018-05-29T02:16:21.459Z,50.90
2018-05-29T02:18:51.068Z,51.00
2018-05-29T02:21:21.219Z,51.10
2018-05-29T02:23:51.550Z,50.70
2018-05-29T02:26:21.039Z,51.30
2018-05-29T02:28:50.926Z,51.20
2018-05-29T02:31:20.660Z,51.30
2018-05-29T02:33:50.114Z,52.10
2018-05-29T02:36:19.588Z,51.40
2018-05-29T02:38:49.465Z,52.20
2018-05-29T02:41:22.063Z,52.20
2018-05-29T02:43:51.257Z,51.90
2018-05-29T02:46:22.076Z,52.00
2018-05-29T02:48:53.802Z,52.70
2018-05-29T02:51:23.588Z,52.10
2018-05-29T02:53:53.351Z,52.60
2018-05-29T02:56:25.902Z,53.50
2018-05-29T02:58:56.230Z,53.20
2018-05-29T03:01:26.044Z,53.10
2018-05-29T03:03:55.673Z,52.90
2018-05-29T03:06:26.256Z,53.10
2018-05-29T03:08:55.822Z,52.00
2018-05-29T03:11:26.109Z,51.30
2018-05-29T03:13:55.599Z,50.90
2018-05-29T03:16:25.160Z,52.20
2018-05-29T03:18:54.893Z,52.70
2018-05-29T03:21:24.209Z,52.70
2018-05-29T03:23:54.951Z,52.40
2018-05-29T03:26:24.531Z,52.80
2018-05-29T03:28:54.347Z,53.10
2018-05-29T03:31:24.388Z,53.70
2018-05-29T03:33:54.272Z,53.50
2018-05-29T03:36:23.723Z,54.10
2018-05-29T03:38:53.526Z,54.50
2018-05-29T03:41:23.349Z,54.60
2018-05-29T03:43:52.617Z,54.80
2018-05-29T03:46:22.248Z,55.40
2018-05-29T03:48:51.651Z,55.70
2018-05-29T03:51:21.767Z,56.30
2018-05-29T03:53:51.536Z,56.80
2018-05-29T03:56:20.932Z,57.40
2018-05-29T03:58:52.774Z,58.40
2018-05-29T04:01:22.320Z,58.30
2018-05-29T04:03:52.424Z,59.10
2018-05-29T04:06:29.357Z,59.60
2018-05-29T04:08:58.746Z,59.80
2018-05-29T04:11:28.223Z,60.50
2018-05-29T04:13:57.612Z,60.80
2018-05-29T04:16:26.993Z,61.20
2018-05-29T04:18:57.351Z,62.20
2018-05-29T04:21:26.843Z,62.20
2018-05-29T04:23:57.214Z,62.60
2018-05-29T04:26:26.914Z,62.50
2018-05-29T04:28:56.253Z,63.10
2018-05-29T04:31:27.958Z,63.90
2018-05-29T04:33:57.537Z,63.90
2018-05-29T04:36:27.935Z,64.20
2018-05-29T04:38:57.891Z,64.20
2018-05-29T04:41:27.666Z,64.40
2018-05-29T04:43:57.053Z,64.20
2018-05-29T04:46:27.224Z,64.20
2018-05-29T04:48:57.091Z,64.60
2018-05-29T04:51:27.453Z,64.50
2018-05-29T04:53:56.998Z,64.20
2018-05-29T04:56:26.518Z,63.40
2018-05-29T04:58:55.878Z,63.20
2018-05-29T05:01:25.140Z,63.70
2018-05-29T05:03:56.050Z,64.00
2018-05-29T05:06:26.929Z,63.80
2018-05-29T05:08:57.803Z,63.80
2018-05-29T05:11:28.716Z,63.40
2018-05-29T05:13:58.384Z,63.40
2018-05-29T05:16:30.018Z,63.90
2018-05-29T05:18:59.751Z,63.90
2018-05-29T05:21:29.689Z,63.60
2018-05-29T05:24:00.083Z,63.30
2018-05-29T05:26:30.350Z,63.30
2018-05-29T05:28:59.772Z,63.90
2018-05-29T05:31:29.271Z,63.00
2018-05-29T05:33:58.868Z,62.30
2018-05-29T05:36:28.415Z,62.10
2018-05-29T05:38:58.440Z,63.00
2018-05-29T05:41:27.775Z,63.10
2018-05-29T05:43:59.552Z,62.00
2018-05-29T05:46:30.952Z,61.70
2018-05-29T05:49:01.549Z,61.60
2018-05-29T05:51:31.295Z,61.60
2018-05-29T05:54:00.609Z,61.40
2018-05-29T05:56:30.732Z,61.50
2018-05-29T05:59:00.180Z,61.50
2018-05-29T06:01:29.766Z,61.70
2018-05-29T06:03:59.517Z,61.90
2018-05-29T06:06:28.345Z,61.90
2018-05-29T06:08:57.186Z,62.00
2018-05-29T06:11:26.920Z,62.20
2018-05-29T06:13:56.259Z,61.30
2018-05-29T06:16:26.240Z,60.70
2018-05-29T06:18:55.951Z,60.60
2018-05-29T06:21:25.181Z,58.90
2018-05-29T06:23:55.903Z,61.00
2018-05-29T06:26:25.285Z,60.90
2018-05-29T06:28:55.939Z,61.70
2018-05-29T06:31:25.586Z,61.70
2018-05-29T06:33:56.181Z,61.20
2018-05-29T06:36:25.759Z,60.50
2018-05-29T06:38:57.369Z,60.10
2018-05-29T06:41:26.822Z,59.30
2018-05-29T06:43:57.558Z,59.30
2018-05-29T06:46:28.681Z,59.50
2018-05-29T06:48:58.185Z,59.60
2018-05-29T06:51:28.384Z,59.60
2018-05-29T06:53:57.895Z,59.40
2018-05-29T06:56:27.225Z,59.70
2018-05-29T06:58:56.627Z,59.60
2018-05-29T07:01:27.143Z,59.40
2018-05-29T07:03:57.583Z,59.00
2018-05-29T07:06:27.211Z,59.20
2018-05-29T07:08:56.817Z,59.60
2018-05-29T07:11:26.235Z,60.00
2018-05-29T07:13:55.995Z,59.60
2018-05-29T07:16:25.917Z,59.80
2018-05-29T07:18:55.208Z,59.70
2018-05-29T07:21:24.655Z,59.80
2018-05-29T07:23:54.713Z,59.20
2018-05-29T07:26:25.306Z,59.20
2018-05-29T07:28:54.973Z,59.20
2018-05-29T07:31:24.520Z,58.80
2018-05-29T07:33:54.032Z,59.10
2018-05-29T07:36:23.630Z,59.10
2018-05-29T07:38:54.304Z,59.10
2018-05-29T07:41:24.041Z,57.60
2018-05-29T07:43:54.679Z,58.60
2018-05-29T07:46:26.129Z,58.20
2018-05-29T07:48:55.727Z,58.20
2018-05-29T07:51:25.297Z,57.70
2018-05-29T07:53:54.569Z,57.70
2018-05-29T07:56:25.170Z,57.30
2018-05-29T07:58:54.795Z,57.00
2018-05-29T08:01:24.289Z,55.90
2018-05-29T08:03:53.961Z,56.40
2018-05-29T08:06:23.904Z,56.30
2018-05-29T08:08:53.559Z,55.90
2018-05-29T08:11:23.151Z,56.10
2018-05-29T08:13:52.725Z,55.40
2018-05-29T08:16:22.723Z,55.30
2018-05-29T08:18:52.587Z,55.50
2018-05-29T08:21:22.161Z,55.10
2018-05-29T08:23:51.653Z,55.20
2018-05-29T08:26:21.017Z,55.40
2018-05-29T08:28:50.669Z,55.50
2018-05-29T08:31:20.092Z,55.70
2018-05-29T08:33:49.779Z,55.90
2018-05-29T08:36:19.203Z,55.10
2018-05-29T08:38:48.784Z,54.80
2018-05-29T08:41:18.953Z,55.50
2018-05-29T08:43:48.624Z,54.80
2018-05-29T08:46:17.874Z,54.80
2018-05-29T08:48:47.260Z,54.90
2018-05-29T08:51:18.204Z,54.80
2018-05-29T08:53:47.481Z,55.50
2018-05-29T08:56:16.369Z,55.50
2018-05-29T08:58:45.866Z,55.30
2018-05-29T09:01:15.451Z,55.20
2018-05-29T09:03:44.889Z,55.40
2018-05-29T09:06:14.374Z,55.20
2018-05-29T09:08:43.809Z,55.30
2018-05-29T09:11:13.195Z,55.40
2018-05-29T09:13:44.315Z,55.30
2018-05-29T09:16:13.945Z,55.40
2018-05-29T09:18:43.456Z,55.10
2018-05-29T09:21:13.202Z,55.50
2018-05-29T09:23:43.310Z,55.20
2018-05-29T09:26:12.872Z,55.20
2018-05-29T09:28:42.171Z,55.40
2018-05-29T09:31:12.681Z,55.40
2018-05-29T09:33:42.344Z,55.90
2018-05-29T09:36:11.985Z,56.60
2018-05-29T09:38:41.577Z,56.70
2018-05-29T09:41:11.356Z,56.60
2018-05-29T09:43:41.618Z,57.20
2018-05-29T09:46:11.209Z,57.40
2018-05-29T09:48:40.539Z,58.00
2018-05-29T09:51:10.243Z,58.10
2018-05-29T09:53:39.806Z,57.80
2018-05-29T09:56:09.302Z,57.90
2018-05-29T09:58:38.776Z,58.50
2018-05-29T10:01:08.912Z,57.70
2018-05-29T10:03:39.905Z,57.60
2018-05-29T10:06:10.409Z,58.20
2018-05-29T10:08:39.971Z,58.10
2018-05-29T10:11:09.551Z,58.80
2018-05-29T10:13:39.117Z,58.90
2018-05-29T10:16:08.705Z,58.80
2018-05-29T10:18:38.280Z,59.40
2018-05-29T10:21:09.307Z,59.40
2018-05-29T10:23:39.597Z,60.20
2018-05-29T10:26:09.459Z,59.60
2018-05-29T10:28:39.857Z,60.90
2018-05-29T10:31:09.471Z,60.90
2018-05-29T10:33:39.043Z,61.20
2018-05-29T10:36:08.733Z,60.90
2018-05-29T10:38:38.648Z,60.90
2018-05-29T10:41:08.425Z,61.10
2018-05-29T10:43:38.363Z,61.30
2018-05-29T10:46:08.187Z,61.80
2018-05-29T10:48:37.869Z,62.60
2018-05-29T10:51:07.303Z,62.60
2018-05-29T10:53:36.809Z,62.80
2018-05-29T10:56:06.225Z,62.90
2018-05-29T10:58:35.712Z,63.60
2018-05-29T11:01:05.359Z,63.10
2018-05-29T11:03:34.847Z,63.40
2018-05-29T11:06:04.246Z,63.90
2018-05-29T11:08:33.824Z,63.80
2018-05-29T11:11:04.790Z,64.70
2018-05-29T11:13:34.581Z,64.70
2018-05-29T11:16:04.176Z,65.40
2018-05-29T11:18:33.554Z,65.40
2018-05-29T11:21:03.210Z,65.70
2018-05-29T11:23:32.697Z,66.20
2018-05-29T11:26:02.368Z,66.50
2018-05-29T11:28:31.973Z,66.60
2018-05-29T11:31:02.624Z,66.70
2018-05-29T11:33:32.906Z,67.50
2018-05-29T11:36:02.118Z,67.50
2018-05-29T11:38:32.479Z,67.40
2018-05-29T11:41:03.411Z,67.70
2018-05-29T11:43:33.115Z,67.80
2018-05-29T11:46:03.298Z,67.90
2018-05-29T11:48:32.927Z,67.80
2018-05-29T11:51:02.839Z,67.70
2018-05-29T11:53:32.705Z,68.00
2018-05-29T11:56:03.686Z,67.70
2018-05-29T11:58:33.474Z,67.00
2018-05-29T12:01:03.006Z,66.90
2018-05-29T12:03:32.587Z,67.60
2018-05-29T12:06:01.858Z,67.50
2018-05-29T12:08:31.348Z,67.60
2018-05-29T12:11:01.306Z,67.30
2018-05-29T12:13:30.707Z,67.30
2018-05-29T12:16:00.624Z,67.00
2018-05-29T12:18:30.533Z,67.00
2018-05-29T12:21:00.079Z,66.70
2018-05-29T12:23:29.890Z,66.90
2018-05-29T12:25:59.236Z,67.10
2018-05-29T12:28:28.931Z,66.80
2018-05-29T12:30:58.617Z,67.20
2018-05-29T12:33:29.724Z,67.20
2018-05-29T12:35:59.587Z,67.20
2018-05-29T12:38:28.890Z,67.50
2018-05-29T12:40:58.479Z,67.50
2018-05-29T12:43:28.896Z,67.80
2018-05-29T12:45:58.412Z,67.80
2018-05-29T12:48:27.872Z,68.10
2018-05-29T12:50:57.474Z,68.30
2018-05-29T12:53:27.503Z,68.70
2018-05-29T12:55:56.940Z,68.50
2018-05-29T13:01:34.769Z,68.90
2018-05-29T13:04:04.292Z,68.90
2018-05-29T13:06:34.199Z,69.20
2018-05-29T13:09:03.934Z,69.10
2018-05-29T13:11:33.109Z,69.30
2018-05-29T13:14:02.825Z,69.30
2018-05-29T13:16:32.488Z,69.20
2018-05-29T13:19:02.881Z,69.40
2018-05-29T13:21:33.724Z,69.90
2018-05-29T13:24:03.652Z,70.10
2018-05-29T13:26:39.641Z,70.90
2018-05-29T13:29:10.039Z,70.40
2018-05-29T13:31:39.280Z,70.20
2018-05-29T13:34:09.853Z,70.60
2018-05-29T13:36:40.630Z,70.60
2018-05-29T13:39:10.234Z,70.30
2018-05-29T13:41:40.201Z,70.40
2018-05-29T13:44:10.696Z,70.80
2018-05-29T13:46:40.447Z,70.70
2018-05-29T13:49:10.241Z,70.30
2018-05-29T13:51:39.702Z,70.30
2018-05-29T13:54:10.338Z,70.50
2018-05-29T13:56:39.870Z,70.10
2018-05-29T13:59:09.016Z,69.70
2018-05-29T14:01:38.211Z,69.60
2018-05-29T14:04:07.752Z,68.90
2018-05-29T14:06:37.131Z,69.60
2018-05-29T14:09:08.035Z,69.40
2018-05-29T14:11:39.322Z,68.70
2018-05-29T14:14:08.737Z,68.60
2018-05-29T14:16:38.249Z,69.10
2018-05-29T14:19:07.759Z,68.20
2018-05-29T14:21:37.350Z,68.30
2018-05-29T14:24:20.531Z,67.90
2018-05-29T14:26:51.770Z,67.60
2018-05-29T14:29:21.115Z,67.60
2018-05-29T14:31:50.526Z,67.60
2018-05-29T14:34:21.382Z,66.90
2018-05-29T14:36:50.764Z,65.80
2018-05-29T14:39:20.315Z,65.70
2018-05-29T14:41:49.791Z,65.40
2018-05-29T14:44:20.512Z,64.50
2018-05-29T14:46:50.397Z,64.60
2018-05-29T14:49:20.316Z,63.80
2018-05-29T14:51:51.433Z,63.40
2018-05-29T14:54:21.109Z,63.60
2018-05-29T14:56:50.635Z,64.80
2018-05-29T14:59:19.979Z,64.60
2018-05-29T15:01:50.459Z,64.70
2018-05-29T15:04:21.313Z,64.70
2018-05-29T15:06:51.282Z,64.40
2018-05-29T15:09:20.898Z,62.90
2018-05-29T15:11:50.495Z,62.00
2018-05-29T15:14:20.954Z,62.40
2018-05-29T15:16:50.418Z,62.00
2018-05-29T15:19:23.652Z,62.20
2018-05-29T15:21:53.368Z,61.70
2018-05-29T15:24:22.919Z,61.20
2018-05-29T15:26:52.431Z,61.70
2018-05-29T15:29:22.168Z,62.50
2018-05-29T15:31:51.719Z,61.20
2018-05-29T15:34:21.364Z,62.10
2018-05-29T15:36:50.904Z,61.50
2018-05-29T15:39:20.435Z,61.10
2018-05-29T15:41:49.902Z,61.60
2018-05-29T15:44:19.285Z,62.10
2018-05-29T15:46:49.433Z,62.30
2018-05-29T15:49:19.592Z,62.70
2018-05-29T15:51:49.407Z,62.70
2018-05-29T15:54:19.558Z,62.40
2018-05-29T15:56:48.986Z,62.60
2018-05-29T15:59:19.640Z,63.50
2018-05-29T16:01:51.108Z,62.70
2018-05-29T16:04:22.767Z,62.30
2018-05-29T16:06:52.289Z,62.20
2018-05-29T16:09:21.918Z,61.80
2018-05-29T16:11:51.583Z,62.40
2018-05-29T16:14:22.361Z,63.10
2018-05-29T16:16:52.064Z,62.40
2018-05-29T16:19:21.558Z,61.60
2018-05-29T16:21:51.145Z,61.30
2018-05-29T16:24:20.465Z,61.50
2018-05-29T16:26:50.066Z,61.70
2018-05-29T16:29:20.110Z,61.60
2018-05-29T16:31:49.725Z,61.50
2018-05-29T16:34:19.312Z,62.20
2018-05-29T16:36:48.831Z,61.20
2018-05-29T16:39:18.640Z,63.00
2018-05-29T16:41:48.985Z,63.20
2018-05-29T16:44:18.505Z,61.00
2018-05-29T16:46:48.675Z,59.40
2018-05-29T16:49:18.884Z,59.40
2018-05-29T16:51:48.328Z,58.80
2018-05-29T16:54:17.923Z,58.90
2018-05-29T16:56:47.307Z,58.60
2018-05-29T16:59:16.778Z,58.40
2018-05-29T17:01:46.653Z,58.40
2018-05-29T17:04:17.280Z,59.10
2018-05-29T17:06:46.652Z,59.40
2018-05-29T17:09:16.062Z,59.80
2018-05-29T17:11:45.782Z,60.60
2018-05-29T17:14:15.460Z,59.10
2018-05-29T17:16:46.683Z,58.50
2018-05-29T17:19:16.877Z,57.70
2018-05-29T17:21:46.408Z,57.80
2018-05-29T17:24:16.109Z,49.50
2018-05-29T17:26:45.456Z,40.50
2018-05-29T17:29:15.023Z,41.00
2018-05-29T17:31:44.394Z,44.90
2018-05-29T17:34:15.425Z,47.60
2018-05-29T17:36:44.762Z,47.50
2018-05-29T17:39:14.234Z,49.90
2018-05-29T17:41:43.621Z,41.90
2018-05-29T17:44:14.187Z,43.10
2018-05-29T17:46:44.575Z,44.20
2018-05-29T17:49:14.179Z,39.40
2018-05-29T17:51:43.840Z,35.40
2018-05-29T17:54:13.213Z,29.20
2018-05-29T17:56:44.327Z,28.50
2018-05-29T17:59:13.972Z,23.50
2018-05-29T18:01:43.315Z,21.70
2018-05-29T18:04:13.976Z,23.50
2018-05-29T18:06:43.581Z,23.50
2018-05-29T18:09:15.376Z,23.00
2018-05-29T18:11:44.932Z,21.20
2018-05-29T18:14:14.628Z,18.70
2018-05-29T18:16:44.165Z,16.50
2018-05-29T18:19:13.864Z,14.80
2018-05-29T18:21:44.370Z,14.80
2018-05-29T18:24:13.911Z,15.30
2018-05-29T18:26:43.522Z,16.10
2018-05-29T18:29:12.780Z,19.70
2018-05-29T18:31:43.726Z,24.60
2018-05-29T18:34:13.209Z,28.00
2018-05-29T18:36:42.851Z,30.10
2018-05-29T18:39:12.370Z,32.90
2018-05-29T18:41:41.712Z,35.50
2018-05-29T18:44:11.321Z,37.10
2018-05-29T18:46:40.635Z,38.00
2018-05-29T18:49:10.436Z,38.40
2018-05-29T18:51:40.099Z,39.00
2018-05-29T18:54:09.462Z,39.00
2018-05-29T18:56:40.319Z,37.60
2018-05-29T18:59:09.648Z,38.60
2018-05-29T19:01:39.324Z,39.70
2018-05-29T19:04:08.664Z,38.70
2018-05-29T19:06:38.195Z,38.20
2018-05-29T19:09:07.705Z,37.80
2018-05-29T19:11:38.245Z,37.70
2018-05-29T19:14:07.699Z,35.50
2018-05-29T19:16:37.147Z,35.40
2018-05-29T19:19:06.786Z,34.80
2018-05-29T19:21:36.552Z,37.50
2018-05-29T19:24:06.982Z,37.00
2018-05-29T19:26:36.397Z,37.90
2018-05-29T19:29:05.970Z,36.70
2018-05-29T19:31:35.406Z,34.70
2018-05-29T19:34:07.917Z,34.50
2018-05-29T19:36:37.460Z,34.40
2018-05-29T19:39:07.907Z,32.50
2018-05-29T19:41:37.630Z,32.60
2018-05-29T19:44:07.077Z,33.70
2018-05-29T19:46:36.400Z,31.70
2018-05-29T19:49:05.745Z,32.00
2018-05-29T19:51:34.999Z,30.90
2018-05-29T19:54:04.402Z,31.50
2018-05-29T19:56:35.240Z,30.10
2018-05-29T19:59:04.625Z,31.80
2018-05-29T20:01:34.211Z,31.90
2018-05-29T20:04:03.884Z,31.60
2018-05-29T20:06:33.153Z,31.90
2018-05-29T20:09:02.429Z,32.90
2018-05-29T20:11:34.563Z,32.30
2018-05-29T20:14:04.850Z,32.50
2018-05-29T20:16:35.261Z,32.30
2018-05-29T20:19:04.779Z,34.00
2018-05-29T20:21:34.574Z,32.10
2018-05-29T20:24:04.177Z,33.60
2018-05-29T20:26:33.646Z,34.50
2018-05-29T20:29:04.505Z,35.30
2018-05-29T20:31:34.204Z,35.50
2018-05-29T20:34:04.016Z,36.20
2018-05-29T20:36:33.870Z,37.50
2018-05-29T20:39:03.709Z,37.70
2018-05-29T20:41:33.356Z,36.60
2018-05-29T20:44:02.821Z,36.70
2018-05-29T20:46:32.224Z,37.70
2018-05-29T20:49:01.758Z,38.70
2018-05-29T20:51:32.146Z,38.30
2018-05-29T20:54:01.822Z,38.20
2018-05-29T20:56:31.466Z,39.70
2018-05-29T20:59:00.745Z,38.80
2018-05-29T21:01:30.272Z,39.50
2018-05-29T21:04:00.012Z,37.50
2018-05-29T21:06:31.265Z,37.50
2018-05-29T21:09:01.817Z,37.50
2018-05-29T21:11:31.093Z,38.40
2018-05-29T21:14:00.100Z,37.90
2018-05-29T21:16:30.428Z,38.10
2018-05-29T21:18:59.962Z,37.70
2018-05-29T21:21:29.559Z,38.10
2018-05-29T21:23:59.333Z,38.90
2018-05-29T21:26:29.795Z,37.30
2018-05-29T21:28:58.860Z,37.20
2018-05-29T21:31:29.242Z,37.40
2018-05-29T21:33:58.915Z,37.30
2018-05-29T21:36:28.601Z,36.90
2018-05-29T21:38:59.295Z,37.50
2018-05-29T21:41:30.429Z,37.40
2018-05-29T21:43:59.794Z,38.90
2018-05-29T21:46:29.176Z,38.20
2018-05-29T21:49:00.813Z,36.20
2018-05-29T21:51:30.454Z,36.20
2018-05-29T21:54:00.087Z,37.00
2018-05-29T21:56:29.380Z,34.40
2018-05-29T21:58:58.877Z,35.50
2018-05-29T22:01:28.496Z,36.80
2018-05-29T22:04:06.142Z,36.20
2018-05-29T22:06:35.691Z,37.00
2018-05-29T22:09:06.586Z,38.10
2018-05-29T22:11:36.839Z,39.30
2018-05-29T22:14:06.413Z,37.60
2018-05-29T22:16:35.894Z,38.30
2018-05-29T22:19:05.285Z,38.20
2018-05-29T22:21:34.847Z,38.00
2018-05-29T22:24:05.365Z,39.40
2018-05-29T22:26:35.040Z,38.40
2018-05-29T22:29:04.649Z,38.00
2018-05-29T22:31:34.111Z,38.70
2018-05-29T22:34:04.274Z,39.30
2018-05-29T22:36:35.605Z,38.70
2018-05-29T22:39:06.155Z,38.70
2018-05-29T22:41:36.221Z,39.50
2018-05-29T22:44:06.161Z,37.70
2018-05-29T22:46:35.944Z,39.40
2018-05-29T22:49:05.527Z,40.80
2018-05-29T22:51:37.227Z,38.40
2018-05-29T22:54:08.103Z,40.00
2018-05-29T22:56:37.684Z,39.90
2018-05-29T22:59:07.559Z,40.90
2018-05-29T23:01:37.029Z,41.20
2018-05-29T23:04:06.512Z,42.40
2018-05-29T23:06:36.106Z,41.10
2018-05-29T23:09:06.056Z,40.00
2018-05-29T23:11:35.445Z,38.40
2018-05-29T23:14:05.887Z,38.00
2018-05-29T23:16:35.284Z,38.20
2018-05-29T23:19:04.855Z,38.80
2018-05-29T23:21:34.275Z,39.00
2018-05-29T23:24:04.026Z,37.80
2018-05-29T23:26:33.587Z,39.00
2018-05-29T23:29:05.174Z,38.70
2018-05-29T23:31:35.229Z,39.20
2018-05-29T23:34:05.147Z,40.00
2018-05-29T23:36:34.785Z,38.90
2018-05-29T23:39:05.479Z,38.90
2018-05-29T23:41:35.966Z,38.20
2018-05-29T23:44:05.360Z,38.20
2018-05-29T23:46:35.061Z,39.60
2018-05-29T23:49:06.368Z,39.10
2018-05-29T23:51:36.881Z,39.60
2018-05-29T23:54:07.971Z,39.20
2018-05-29T23:56:38.643Z,39.50
2018-05-29T23:59:08.633Z,38.70
